sensor_id;sensor_type;location;lat;lon;timestamp;pressure;altitude;pressure_sealevel;temperature;humidity
52651;BME280;38537;47.226;39.702;2023-04-25T00:01:22;100048.34;;;13.71;78.08
52651;BME280;38537;47.226;39.702;2023-04-25T00:03:49;100031.22;;;13.64;78.10
52651;BME280;38537;47.226;39.702;2023-04-25T00:06:17;100035.97;;;13.72;77.79
52651;BME280;38537;47.226;39.702;2023-04-25T00:08:45;100032.81;;;13.83;77.67
52651;BME280;38537;47.226;39.702;2023-04-25T00:11:12;100023.44;;;13.70;77.68
52651;BME280;38537;47.226;39.702;2023-04-25T00:13:40;100035.72;;;13.86;77.39
52651;BME280;38537;47.226;39.702;2023-04-25T00:16:08;100025.59;;;13.64;77.66
52651;BME280;38537;47.226;39.702;2023-04-25T00:18:36;100024.25;;;13.70;77.77
52651;BME280;38537;47.226;39.702;2023-04-25T00:21:04;100022.47;;;13.66;77.92
52651;BME280;38537;47.226;39.702;2023-04-25T00:23:33;100025.72;;;13.77;77.82
52651;BME280;38537;47.226;39.702;2023-04-25T00:26:03;100031.03;;;13.69;77.87
52651;BME280;38537;47.226;39.702;2023-04-25T00:28:30;100026.09;;;13.66;78.05
52651;BME280;38537;47.226;39.702;2023-04-25T00:30:57;100013.44;;;13.60;77.96
52651;BME280;38537;47.226;39.702;2023-04-25T00:33:25;100019.13;;;13.72;77.83
52651;BME280;38537;47.226;39.702;2023-04-25T00:35:52;100003.31;;;13.68;77.53
52651;BME280;38537;47.226;39.702;2023-04-25T00:38:19;100017.78;;;13.79;77.02
52651;BME280;38537;47.226;39.702;2023-04-25T00:40:47;100013.19;;;13.74;77.30
52651;BME280;38537;47.226;39.702;2023-04-25T00:43:14;100011.03;;;13.80;77.27
52651;BME280;38537;47.226;39.702;2023-04-25T00:45:42;100010.00;;;13.84;76.65
52651;BME280;38537;47.226;39.702;2023-04-25T00:48:10;99999.94;;;13.83;76.43
52651;BME280;38537;47.226;39.702;2023-04-25T00:50:38;99992.81;;;13.86;76.31
52651;BME280;38537;47.226;39.702;2023-04-25T00:53:06;100009.28;;;13.96;76.07
52651;BME280;38537;47.226;39.702;2023-04-25T00:55:33;99996.41;;;13.95;76.01
52651;BME280;38537;47.226;39.702;2023-04-25T00:58:03;99993.75;;;13.98;75.92
52651;BME280;38537;47.226;39.702;2023-04-25T01:00:30;99987.63;;;13.96;76.14
52651;BME280;38537;47.226;39.702;2023-04-25T01:02:58;99990.09;;;13.98;75.96
52651;BME280;38537;47.226;39.702;2023-04-25T01:05:25;99977.75;;;13.90;76.24
52651;BME280;38537;47.226;39.702;2023-04-25T01:07:53;99972.72;;;13.84;76.22
52651;BME280;38537;47.226;39.702;2023-04-25T01:10:20;99975.03;;;13.82;76.36
52651;BME280;38537;47.226;39.702;2023-04-25T01:12:47;99976.22;;;13.72;76.71
52651;BME280;38537;47.226;39.702;2023-04-25T01:15:15;99976.03;;;13.77;75.95
52651;BME280;38537;47.226;39.702;2023-04-25T01:17:42;99952.19;;;13.62;76.69
52651;BME280;38537;47.226;39.702;2023-04-25T01:20:11;99977.06;;;13.72;76.92
52651;BME280;38537;47.226;39.702;2023-04-25T01:22:39;99961.56;;;13.66;76.93
52651;BME280;38537;47.226;39.702;2023-04-25T01:25:07;99962.38;;;13.67;76.98
52651;BME280;38537;47.226;39.702;2023-04-25T01:27:36;99960.63;;;13.62;77.40
52651;BME280;38537;47.226;39.702;2023-04-25T01:30:05;99965.97;;;13.76;77.08
52651;BME280;38537;47.226;39.702;2023-04-25T01:32:33;99963.16;;;13.76;76.95
52651;BME280;38537;47.226;39.702;2023-04-25T01:35:09;99952.66;;;13.64;77.07
52651;BME280;38537;47.226;39.702;2023-04-25T01:37:38;99948.69;;;13.65;76.87
52651;BME280;38537;47.226;39.702;2023-04-25T01:40:11;99966.66;;;13.73;76.95
52651;BME280;38537;47.226;39.702;2023-04-25T01:42:41;99948.25;;;13.63;77.30
52651;BME280;38537;47.226;39.702;2023-04-25T01:45:10;99953.63;;;13.68;77.50
52651;BME280;38537;47.226;39.702;2023-04-25T01:47:38;99953.38;;;13.61;77.90
52651;BME280;38537;47.226;39.702;2023-04-25T01:50:07;99940.56;;;13.43;77.61
52651;BME280;38537;47.226;39.702;2023-04-25T01:52:36;99930.03;;;13.40;78.19
52651;BME280;38537;47.226;39.702;2023-04-25T01:55:03;99944.16;;;13.52;77.87
52651;BME280;38537;47.226;39.702;2023-04-25T01:57:32;99940.88;;;13.50;78.09
52651;BME280;38537;47.226;39.702;2023-04-25T02:00:03;99946.63;;;13.54;78.04
52651;BME280;38537;47.226;39.702;2023-04-25T02:02:40;99943.47;;;13.55;77.70
52651;BME280;38537;47.226;39.702;2023-04-25T02:05:19;99933.47;;;13.46;78.21
52651;BME280;38537;47.226;39.702;2023-04-25T02:07:47;99931.28;;;13.51;77.77
52651;BME280;38537;47.226;39.702;2023-04-25T02:10:15;99938.59;;;13.44;77.97
52651;BME280;38537;47.226;39.702;2023-04-25T02:12:54;99938.25;;;13.45;77.76
52651;BME280;38537;47.226;39.702;2023-04-25T02:15:33;99931.25;;;13.60;77.14
52651;BME280;38537;47.226;39.702;2023-04-25T02:18:32;99934.00;;;13.89;76.62
52651;BME280;38537;47.226;39.702;2023-04-25T02:21:00;99944.75;;;14.08;75.46
52651;BME280;38537;47.226;39.702;2023-04-25T02:23:28;99928.41;;;14.10;74.84
52651;BME280;38537;47.226;39.702;2023-04-25T02:25:56;99941.16;;;14.28;74.19
52651;BME280;38537;47.226;39.702;2023-04-25T02:28:24;99952.47;;;14.40;74.00
52651;BME280;38537;47.226;39.702;2023-04-25T02:30:53;99938.91;;;14.43;73.57
52651;BME280;38537;47.226;39.702;2023-04-25T02:33:20;99945.03;;;14.36;73.87
52651;BME280;38537;47.226;39.702;2023-04-25T02:35:47;99945.88;;;14.36;74.35
52651;BME280;38537;47.226;39.702;2023-04-25T02:38:15;99947.00;;;14.44;74.01
52651;BME280;38537;47.226;39.702;2023-04-25T02:40:42;99948.06;;;14.52;73.72
52651;BME280;38537;47.226;39.702;2023-04-25T02:43:09;99947.16;;;14.60;73.08
52651;BME280;38537;47.226;39.702;2023-04-25T02:45:36;99927.72;;;14.55;72.61
52651;BME280;38537;47.226;39.702;2023-04-25T02:48:04;99950.53;;;14.86;72.13
52651;BME280;38537;47.226;39.702;2023-04-25T02:50:32;99944.44;;;14.84;71.84
52651;BME280;38537;47.226;39.702;2023-04-25T02:52:59;99945.19;;;14.93;71.56
52651;BME280;38537;47.226;39.702;2023-04-25T02:55:33;99943.97;;;14.94;71.39
52651;BME280;38537;47.226;39.702;2023-04-25T02:58:02;99942.94;;;14.99;71.13
52651;BME280;38537;47.226;39.702;2023-04-25T03:00:43;99929.59;;;14.96;71.04
52651;BME280;38537;47.226;39.702;2023-04-25T03:03:10;99952.00;;;15.17;70.87
52651;BME280;38537;47.226;39.702;2023-04-25T03:05:39;99956.09;;;15.19;70.43
52651;BME280;38537;47.226;39.702;2023-04-25T03:08:07;99952.38;;;15.15;70.73
52651;BME280;38537;47.226;39.702;2023-04-25T03:10:36;99936.28;;;15.03;70.58
52651;BME280;38537;47.226;39.702;2023-04-25T03:13:06;99953.63;;;15.18;70.58
52651;BME280;38537;47.226;39.702;2023-04-25T03:15:35;99950.34;;;15.16;70.49
52651;BME280;38537;47.226;39.702;2023-04-25T03:18:03;99958.56;;;15.21;70.57
52651;BME280;38537;47.226;39.702;2023-04-25T03:20:31;99950.50;;;15.31;70.19
52651;BME280;38537;47.226;39.702;2023-04-25T03:22:58;99961.63;;;15.40;69.87
52651;BME280;38537;47.226;39.702;2023-04-25T03:25:27;99950.28;;;15.36;69.70
52651;BME280;38537;47.226;39.702;2023-04-25T03:27:54;99952.72;;;15.38;69.99
52651;BME280;38537;47.226;39.702;2023-04-25T03:30:22;99943.59;;;15.29;70.50
52651;BME280;38537;47.226;39.702;2023-04-25T03:32:50;99950.50;;;15.31;69.98
52651;BME280;38537;47.226;39.702;2023-04-25T03:35:17;99930.44;;;15.21;70.26
52651;BME280;38537;47.226;39.702;2023-04-25T03:37:44;99930.78;;;15.19;70.67
52651;BME280;38537;47.226;39.702;2023-04-25T03:40:19;99950.28;;;15.49;70.83
52651;BME280;38537;47.226;39.702;2023-04-25T03:43:09;99941.72;;;15.33;70.23
52651;BME280;38537;47.226;39.702;2023-04-25T03:45:39;99939.59;;;15.30;70.34
52651;BME280;38537;47.226;39.702;2023-04-25T03:48:06;99934.94;;;15.34;70.00
52651;BME280;38537;47.226;39.702;2023-04-25T03:50:34;99946.88;;;15.43;69.74
52651;BME280;38537;47.226;39.702;2023-04-25T03:53:21;99946.88;;;15.43;69.56
52651;BME280;38537;47.226;39.702;2023-04-25T03:56:07;99929.50;;;15.41;69.39
52651;BME280;38537;47.226;39.702;2023-04-25T03:58:37;99914.28;;;15.42;69.56
52651;BME280;38537;47.226;39.702;2023-04-25T04:01:05;99940.81;;;15.65;69.07
52651;BME280;38537;47.226;39.702;2023-04-25T04:03:37;99941.41;;;15.71;68.72
52651;BME280;38537;47.226;39.702;2023-04-25T04:06:06;99934.72;;;15.75;68.32
52651;BME280;38537;47.226;39.702;2023-04-25T04:08:42;99930.25;;;15.62;69.00
52651;BME280;38537;47.226;39.702;2023-04-25T04:11:10;99918.75;;;15.67;68.47
52651;BME280;38537;47.226;39.702;2023-04-25T04:13:38;99914.41;;;15.70;68.24
52651;BME280;38537;47.226;39.702;2023-04-25T04:16:06;99931.28;;;15.82;68.04
52651;BME280;38537;47.226;39.702;2023-04-25T04:18:33;99919.09;;;15.78;67.92
52651;BME280;38537;47.226;39.702;2023-04-25T04:21:01;99926.69;;;15.90;67.93
52651;BME280;38537;47.226;39.702;2023-04-25T04:23:31;99920.25;;;15.89;67.74
52651;BME280;38537;47.226;39.702;2023-04-25T04:25:59;99917.09;;;15.91;67.91
52651;BME280;38537;47.226;39.702;2023-04-25T04:29:02;99922.59;;;15.99;67.73
52651;BME280;38537;47.226;39.702;2023-04-25T04:31:49;99924.59;;;15.99;67.33
52651;BME280;38537;47.226;39.702;2023-04-25T04:34:17;99914.03;;;15.96;67.30
52651;BME280;38537;47.226;39.702;2023-04-25T04:36:45;99920.31;;;16.05;67.32
52651;BME280;38537;47.226;39.702;2023-04-25T04:39:13;99917.16;;;16.06;67.10
52651;BME280;38537;47.226;39.702;2023-04-25T04:41:57;99906.72;;;16.07;67.21
52651;BME280;38537;47.226;39.702;2023-04-25T04:44:33;99910.00;;;16.09;67.01
52651;BME280;38537;47.226;39.702;2023-04-25T04:47:20;99899.78;;;16.04;67.07
52651;BME280;38537;47.226;39.702;2023-04-25T04:50:10;99895.25;;;16.00;67.02
52651;BME280;38537;47.226;39.702;2023-04-25T04:52:53;99899.44;;;16.06;67.04
52651;BME280;38537;47.226;39.702;2023-04-25T04:55:42;99908.47;;;16.11;66.91
52651;BME280;38537;47.226;39.702;2023-04-25T04:58:36;99888.16;;;16.06;66.72
52651;BME280;38537;47.226;39.702;2023-04-25T05:01:33;99898.00;;;16.12;66.36
52651;BME280;38537;47.226;39.702;2023-04-25T05:04:23;99904.13;;;16.14;66.35
52651;BME280;38537;47.226;39.702;2023-04-25T05:07:30;99896.88;;;16.01;66.57
52651;BME280;38537;47.226;39.702;2023-04-25T05:10:07;99902.88;;;15.99;66.46
52651;BME280;38537;47.226;39.702;2023-04-25T05:12:53;99909.78;;;16.02;66.29
52651;BME280;38537;47.226;39.702;2023-04-25T05:15:40;99893.59;;;15.99;66.72
52651;BME280;38537;47.226;39.702;2023-04-25T05:18:24;99903.69;;;16.00;66.37
52651;BME280;38537;47.226;39.702;2023-04-25T05:21:03;99895.09;;;16.08;66.30
52651;BME280;38537;47.226;39.702;2023-04-25T05:23:41;99909.50;;;16.19;65.96
52651;BME280;38537;47.226;39.702;2023-04-25T05:26:23;99890.03;;;16.14;65.86
52651;BME280;38537;47.226;39.702;2023-04-25T05:29:09;99907.03;;;16.18;66.08
52651;BME280;38537;47.226;39.702;2023-04-25T05:31:55;99890.75;;;16.11;65.78
52651;BME280;38537;47.226;39.702;2023-04-25T05:34:23;99905.22;;;16.25;65.61
52651;BME280;38537;47.226;39.702;2023-04-25T05:36:55;99905.50;;;16.20;65.53
52651;BME280;38537;47.226;39.702;2023-04-25T05:39:23;99888.25;;;16.22;65.37
52651;BME280;38537;47.226;39.702;2023-04-25T05:42:08;99900.03;;;16.39;65.11
52651;BME280;38537;47.226;39.702;2023-04-25T05:44:54;99887.59;;;16.40;64.77
52651;BME280;38537;47.226;39.702;2023-04-25T05:47:40;99882.66;;;16.37;64.59
52651;BME280;38537;47.226;39.702;2023-04-25T05:50:14;99886.75;;;16.40;64.44
52651;BME280;38537;47.226;39.702;2023-04-25T05:53:12;99881.84;;;16.37;64.60
52651;BME280;38537;47.226;39.702;2023-04-25T05:55:42;99881.38;;;16.35;64.61
52651;BME280;38537;47.226;39.702;2023-04-25T05:58:21;99885.94;;;16.39;64.60
52651;BME280;38537;47.226;39.702;2023-04-25T06:00:49;99891.69;;;16.43;64.55
52651;BME280;38537;47.226;39.702;2023-04-25T06:03:16;99876.31;;;16.40;64.35
52651;BME280;38537;47.226;39.702;2023-04-25T06:05:47;99891.97;;;16.54;64.18
52651;BME280;38537;47.226;39.702;2023-04-25T06:08:15;99891.25;;;16.57;64.06
52651;BME280;38537;47.226;39.702;2023-04-25T06:10:43;99883.16;;;16.55;63.84
52651;BME280;38537;47.226;39.702;2023-04-25T06:13:10;99882.34;;;16.55;63.58
52651;BME280;38537;47.226;39.702;2023-04-25T06:15:37;99880.50;;;16.46;63.63
52651;BME280;38537;47.226;39.702;2023-04-25T06:18:05;99887.75;;;16.48;63.84
52651;BME280;38537;47.226;39.702;2023-04-25T06:20:33;99870.84;;;16.48;63.69
52651;BME280;38537;47.226;39.702;2023-04-25T06:23:00;99884.22;;;16.51;63.53
52651;BME280;38537;47.226;39.702;2023-04-25T06:25:38;99873.22;;;16.45;63.39
52651;BME280;38537;47.226;39.702;2023-04-25T06:28:05;99867.03;;;16.40;63.70
52651;BME280;38537;47.226;39.702;2023-04-25T06:30:33;99881.66;;;16.45;63.71
52651;BME280;38537;47.226;39.702;2023-04-25T06:33:06;99871.41;;;16.53;63.55
52651;BME280;38537;47.226;39.702;2023-04-25T06:35:34;99851.41;;;16.42;63.38
52651;BME280;38537;47.226;39.702;2023-04-25T06:38:01;99853.06;;;16.43;63.48
52651;BME280;38537;47.226;39.702;2023-04-25T06:40:30;99872.97;;;16.51;63.60
52651;BME280;38537;47.226;39.702;2023-04-25T06:42:57;99874.25;;;16.53;63.62
52651;BME280;38537;47.226;39.702;2023-04-25T06:45:44;99886.09;;;16.59;63.60
52651;BME280;38537;47.226;39.702;2023-04-25T06:48:14;99872.09;;;16.62;63.40
52651;BME280;38537;47.226;39.702;2023-04-25T06:50:42;99880.22;;;16.64;63.37
52651;BME280;38537;47.226;39.702;2023-04-25T06:53:18;99881.94;;;16.68;63.22
52651;BME280;38537;47.226;39.702;2023-04-25T06:55:50;99874.59;;;16.64;62.91
52651;BME280;38537;47.226;39.702;2023-04-25T06:58:20;99858.50;;;16.64;62.96
52651;BME280;38537;47.226;39.702;2023-04-25T07:00:50;99880.13;;;16.76;62.88
52651;BME280;38537;47.226;39.702;2023-04-25T07:03:20;99871.47;;;16.69;62.99
52651;BME280;38537;47.226;39.702;2023-04-25T07:05:50;99879.41;;;16.63;63.14
52651;BME280;38537;47.226;39.702;2023-04-25T07:08:17;99871.06;;;16.55;63.40
52651;BME280;38537;47.226;39.702;2023-04-25T07:10:45;99876.84;;;16.46;63.61
52651;BME280;38537;47.226;39.702;2023-04-25T07:13:15;99884.22;;;16.51;63.79
52651;BME280;38537;47.226;39.702;2023-04-25T07:15:43;99882.34;;;16.55;63.88
52651;BME280;38537;47.226;39.702;2023-04-25T07:18:11;99855.13;;;16.46;63.47
52651;BME280;38537;47.226;39.702;2023-04-25T07:20:39;99881.50;;;16.66;63.27
52651;BME280;38537;47.226;39.702;2023-04-25T07:23:06;99873.88;;;16.67;63.19
52651;BME280;38537;47.226;39.702;2023-04-25T07:25:34;99871.28;;;16.62;63.16
52651;BME280;38537;47.226;39.702;2023-04-25T07:28:02;99865.63;;;16.62;63.17
52651;BME280;38537;47.226;39.702;2023-04-25T07:30:29;99868.13;;;16.51;63.45
52651;BME280;38537;47.226;39.702;2023-04-25T07:32:56;99876.69;;;16.67;63.22
52651;BME280;38537;47.226;39.702;2023-04-25T07:35:24;99878.84;;;16.73;63.44
52651;BME280;38537;47.226;39.702;2023-04-25T07:37:52;99876.50;;;16.75;63.27
52651;BME280;38537;47.226;39.702;2023-04-25T07:40:19;99872.84;;;16.75;63.13
52651;BME280;38537;47.226;39.702;2023-04-25T07:42:50;99875.88;;;16.82;63.12
52651;BME280;38537;47.226;39.702;2023-04-25T07:45:42;99866.03;;;16.76;63.10
52651;BME280;38537;47.226;39.702;2023-04-25T07:48:09;99858.56;;;16.68;63.23
52651;BME280;38537;47.226;39.702;2023-04-25T07:50:38;99866.28;;;16.71;63.27
52651;BME280;38537;47.226;39.702;2023-04-25T07:53:06;99872.41;;;16.73;63.54
52651;BME280;38537;47.226;39.702;2023-04-25T07:55:41;99871.94;;;16.71;63.66
52651;BME280;38537;47.226;39.702;2023-04-25T07:58:14;99862.19;;;16.68;63.74
52651;BME280;38537;47.226;39.702;2023-04-25T08:00:44;99867.16;;;16.59;63.82
52651;BME280;38537;47.226;39.702;2023-04-25T08:03:38;99854.34;;;16.62;63.90
52651;BME280;38537;47.226;39.702;2023-04-25T08:06:13;99852.19;;;16.71;63.89
52651;BME280;38537;47.226;39.702;2023-04-25T08:08:49;99844.41;;;16.80;63.73
52651;BME280;38537;47.226;39.702;2023-04-25T08:11:19;99843.84;;;16.90;63.78
52651;BME280;38537;47.226;39.702;2023-04-25T08:13:47;99844.94;;;17.01;63.48
52651;BME280;38537;47.226;39.702;2023-04-25T08:16:14;99858.94;;;17.13;63.29
52651;BME280;38537;47.226;39.702;2023-04-25T08:18:42;99856.13;;;17.13;62.81
52651;BME280;38537;47.226;39.702;2023-04-25T08:21:10;99837.41;;;17.05;62.90
52651;BME280;38537;47.226;39.702;2023-04-25T08:23:38;99843.13;;;17.09;63.02
52651;BME280;38537;47.226;39.702;2023-04-25T08:26:12;99827.47;;;17.11;62.75
52651;BME280;38537;47.226;39.702;2023-04-25T08:28:42;99842.84;;;17.14;62.99
52651;BME280;38537;47.226;39.702;2023-04-25T08:31:09;99832.22;;;17.07;62.91
52651;BME280;38537;47.226;39.702;2023-04-25T08:33:47;99842.13;;;17.17;63.10
52651;BME280;38537;47.226;39.702;2023-04-25T08:36:31;99835.50;;;17.09;63.17
52651;BME280;38537;47.226;39.702;2023-04-25T08:39:16;99821.63;;;17.20;62.83
52651;BME280;38537;47.226;39.702;2023-04-25T08:41:58;99823.38;;;17.25;62.59
52651;BME280;38537;47.226;39.702;2023-04-25T08:44:26;99829.59;;;17.34;62.61
52651;BME280;38537;47.226;39.702;2023-04-25T08:46:54;99824.63;;;17.27;62.61
52651;BME280;38537;47.226;39.702;2023-04-25T08:49:28;99824.47;;;17.55;62.77
52651;BME280;38537;47.226;39.702;2023-04-25T08:52:00;99821.88;;;17.46;62.54
52651;BME280;38537;47.226;39.702;2023-04-25T08:54:28;99819.50;;;17.48;62.72
52651;BME280;38537;47.226;39.702;2023-04-25T08:57:05;99822.81;;;17.54;62.33
52651;BME280;38537;47.226;39.702;2023-04-25T08:59:32;99809.09;;;17.53;62.16
52651;BME280;38537;47.226;39.702;2023-04-25T09:02:00;99808.47;;;17.43;62.13
52651;BME280;38537;47.226;39.702;2023-04-25T09:04:33;99818.53;;;17.60;61.97
52651;BME280;38537;47.226;39.702;2023-04-25T09:07:00;99814.06;;;17.59;62.08
52651;BME280;38537;47.226;39.702;2023-04-25T09:09:29;99805.28;;;17.45;62.03
52651;BME280;38537;47.226;39.702;2023-04-25T09:11:56;99807.66;;;17.43;62.53
52651;BME280;38537;47.226;39.702;2023-04-25T09:14:25;99808.66;;;17.35;62.53
52651;BME280;38537;47.226;39.702;2023-04-25T09:17:04;99815.22;;;17.39;62.76
52651;BME280;38537;47.226;39.702;2023-04-25T09:19:47;99799.28;;;17.46;62.54
52651;BME280;38537;47.226;39.702;2023-04-25T09:22:19;99797.00;;;17.52;62.53
52651;BME280;38537;47.226;39.702;2023-04-25T09:24:49;99808.66;;;17.51;62.38
52651;BME280;38537;47.226;39.702;2023-04-25T09:27:21;99804.19;;;17.50;62.50
52651;BME280;38537;47.226;39.702;2023-04-25T09:30:35;99819.13;;;17.50;62.11
52651;BME280;38537;47.226;39.702;2023-04-25T09:33:10;99809.53;;;17.55;62.48
52651;BME280;38537;47.226;39.702;2023-04-25T09:35:44;99809.25;;;17.60;62.51
52651;BME280;38537;47.226;39.702;2023-04-25T09:38:23;99804.84;;;17.43;61.91
52651;BME280;38537;47.226;39.702;2023-04-25T09:41:08;99803.03;;;17.35;62.44
52651;BME280;38537;47.226;39.702;2023-04-25T09:43:45;99817.25;;;17.23;62.17
52651;BME280;38537;47.226;39.702;2023-04-25T09:46:15;99822.19;;;17.26;62.27
52651;BME280;38537;47.226;39.702;2023-04-25T09:48:50;99804.38;;;17.06;62.13
52651;BME280;38537;47.226;39.702;2023-04-25T09:51:26;99824.13;;;17.06;62.32
52651;BME280;38537;47.226;39.702;2023-04-25T09:53:57;99804.28;;;16.71;62.44
52651;BME280;38537;47.226;39.702;2023-04-25T09:56:54;99829.47;;;16.64;63.03
52651;BME280;38537;47.226;39.702;2023-04-25T09:59:21;99815.63;;;16.59;63.54
52651;BME280;38537;47.226;39.702;2023-04-25T10:01:53;99821.16;;;16.55;63.27
52651;BME280;38537;47.226;39.702;2023-04-25T10:04:33;99830.16;;;16.61;63.27
52651;BME280;38537;47.226;39.702;2023-04-25T10:07:11;99836.91;;;16.72;63.25
52651;BME280;38537;47.226;39.702;2023-04-25T10:09:47;99826.28;;;16.65;62.94
52651;BME280;38537;47.226;39.702;2023-04-25T10:12:14;99816.91;;;16.77;62.98
52651;BME280;38537;47.226;39.702;2023-04-25T10:14:43;99823.28;;;16.74;62.67
52651;BME280;38537;47.226;39.702;2023-04-25T10:17:11;99806.66;;;16.85;62.81
52651;BME280;38537;47.226;39.702;2023-04-25T10:19:41;99817.00;;;16.96;62.39
52651;BME280;38537;47.226;39.702;2023-04-25T10:22:17;99829.19;;;17.16;61.73
52651;BME280;38537;47.226;39.702;2023-04-25T10:24:46;99819.09;;;17.15;61.92
52651;BME280;38537;47.226;39.702;2023-04-25T10:27:14;99807.44;;;17.17;61.96
52651;BME280;38537;47.226;39.702;2023-04-25T10:29:42;99819.91;;;17.31;61.67
52651;BME280;38537;47.226;39.702;2023-04-25T10:32:12;99818.69;;;17.32;61.60
52651;BME280;38537;47.226;39.702;2023-04-25T10:34:43;99816.31;;;17.34;61.67
52651;BME280;38537;47.226;39.702;2023-04-25T10:37:14;99816.13;;;17.43;61.59
52651;BME280;38537;47.226;39.702;2023-04-25T10:39:41;99806.88;;;17.27;61.50
52651;BME280;38537;47.226;39.702;2023-04-25T10:42:09;99819.69;;;17.40;61.69
52651;BME280;38537;47.226;39.702;2023-04-25T10:44:39;99810.63;;;17.31;62.34
52651;BME280;38537;47.226;39.702;2023-04-25T10:47:07;99811.13;;;17.36;62.15
52651;BME280;38537;47.226;39.702;2023-04-25T10:49:38;99817.78;;;17.44;62.08
52651;BME280;38537;47.226;39.702;2023-04-25T10:54:46;99823.44;;;17.63;61.84
52651;BME280;38537;47.226;39.702;2023-04-25T11:00:05;99828.34;;;17.82;61.26
52651;BME280;38537;47.226;39.702;2023-04-25T11:02:37;99828.06;;;17.87;61.09
52651;BME280;38537;47.226;39.702;2023-04-25T11:05:05;99835.78;;;17.90;60.99
52651;BME280;38537;47.226;39.702;2023-04-25T11:07:51;99816.31;;;17.85;60.55
52651;BME280;38537;47.226;39.702;2023-04-25T11:10:33;99838.53;;;18.06;60.27
52651;BME280;38537;47.226;39.702;2023-04-25T11:13:03;99831.09;;;17.98;60.17
52651;BME280;38537;47.226;39.702;2023-04-25T11:15:31;99837.97;;;17.97;59.63
52651;BME280;38537;47.226;39.702;2023-04-25T11:17:58;99835.53;;;17.99;60.05
52651;BME280;38537;47.226;39.702;2023-04-25T11:20:26;99835.13;;;17.97;59.50
52651;BME280;38537;47.226;39.702;2023-04-25T11:22:58;99836.88;;;17.86;59.30
52651;BME280;38537;47.226;39.702;2023-04-25T11:25:28;99818.59;;;17.79;59.94
52651;BME280;38537;47.226;39.702;2023-04-25T11:27:58;99845.97;;;17.95;59.52
52651;BME280;38537;47.226;39.702;2023-04-25T11:30:26;99834.97;;;17.90;59.45
52651;BME280;38537;47.226;39.702;2023-04-25T11:32:54;99865.59;;;18.07;59.48
52651;BME280;38537;47.226;39.702;2023-04-25T11:35:21;99843.44;;;18.09;59.38
52651;BME280;38537;47.226;39.702;2023-04-25T11:37:52;99838.91;;;18.04;59.43
52651;BME280;38537;47.226;39.702;2023-04-25T11:40:20;99860.31;;;18.05;59.54
52651;BME280;38537;47.226;39.702;2023-04-25T11:42:47;99839.06;;;17.92;59.51
52651;BME280;38537;47.226;39.702;2023-04-25T11:45:15;99859.13;;;18.06;59.39
52651;BME280;38537;47.226;39.702;2023-04-25T11:47:42;99836.59;;;17.91;59.50
52651;BME280;38537;47.226;39.702;2023-04-25T11:50:10;99843.16;;;17.95;59.56
52651;BME280;38537;47.226;39.702;2023-04-25T11:52:43;99867.69;;;18.10;59.10
52651;BME280;38537;47.226;39.702;2023-04-25T11:57:43;99864.22;;;18.17;59.12
52651;BME280;38537;47.226;39.702;2023-04-25T12:00:19;99870.22;;;18.15;58.99
52651;BME280;38537;47.226;39.702;2023-04-25T12:02:51;99870.31;;;18.19;58.81
52651;BME280;38537;47.226;39.702;2023-04-25T12:05:19;99859.41;;;18.01;58.66
52651;BME280;38537;47.226;39.702;2023-04-25T12:08:17;99875.13;;;18.18;58.59
52651;BME280;38537;47.226;39.702;2023-04-25T12:10:45;99868.13;;;18.12;58.50
52651;BME280;38537;47.226;39.702;2023-04-25T12:13:24;99859.88;;;18.23;58.47
52651;BME280;38537;47.226;39.702;2023-04-25T12:15:53;99863.06;;;18.21;58.54
52651;BME280;38537;47.226;39.702;2023-04-25T12:18:23;99865.53;;;18.23;58.36
52651;BME280;38537;47.226;39.702;2023-04-25T12:20:52;99867.59;;;18.26;58.35
52651;BME280;38537;47.226;39.702;2023-04-25T12:23:29;99861.38;;;18.17;58.25
52651;BME280;38537;47.226;39.702;2023-04-25T12:25:57;99852.94;;;17.81;58.51
52651;BME280;38537;47.226;39.702;2023-04-25T12:28:25;99861.22;;;17.90;58.80
52651;BME280;38537;47.226;39.702;2023-04-25T12:31:05;99859.19;;;17.91;58.53
52651;BME280;38537;47.226;39.702;2023-04-25T12:33:34;99858.84;;;17.92;58.74
52651;BME280;38537;47.226;39.702;2023-04-25T12:36:05;99854.91;;;17.97;58.73
52651;BME280;38537;47.226;39.702;2023-04-25T12:38:39;99861.56;;;17.89;58.88
52651;BME280;38537;47.226;39.702;2023-04-25T12:41:07;99872.22;;;17.95;58.99
52651;BME280;38537;47.226;39.702;2023-04-25T12:43:34;99856.50;;;17.78;59.50
52651;BME280;38537;47.226;39.702;2023-04-25T12:46:02;99857.53;;;17.70;59.72
52651;BME280;38537;47.226;39.702;2023-04-25T12:48:30;99881.31;;;17.69;60.11
52651;BME280;38537;47.226;39.702;2023-04-25T12:50:57;99870.75;;;17.66;60.18
52651;BME280;38537;47.226;39.702;2023-04-25T12:53:25;99846.00;;;17.44;60.80
52651;BME280;38537;47.226;39.702;2023-04-25T12:55:52;99888.16;;;17.37;61.19
52651;BME280;38537;47.226;39.702;2023-04-25T12:58:24;99877.97;;;17.17;61.67
52651;BME280;38537;47.226;39.702;2023-04-25T13:00:52;99865.41;;;17.14;61.69
52651;BME280;38537;47.226;39.702;2023-04-25T13:03:19;99881.44;;;17.10;61.64
52651;BME280;38537;47.226;39.702;2023-04-25T13:05:47;99885.88;;;16.95;62.27
52651;BME280;38537;47.226;39.702;2023-04-25T13:08:14;99895.63;;;16.98;62.29
52651;BME280;38537;47.226;39.702;2023-04-25T13:10:42;99878.78;;;16.86;62.26
52651;BME280;38537;47.226;39.702;2023-04-25T13:13:09;99869.41;;;16.82;62.49
52651;BME280;38537;47.226;39.702;2023-04-25T13:15:36;99892.19;;;16.89;62.40
52651;BME280;38537;47.226;39.702;2023-04-25T13:18:04;99900.00;;;16.95;62.50
52651;BME280;38537;47.226;39.702;2023-04-25T13:20:32;99882.34;;;16.83;63.02
52651;BME280;38537;47.226;39.702;2023-04-25T13:23:00;99907.34;;;16.84;63.20